Aérodrome :
LOGIN :

S'inscrire | Disclaimer

   EN    FR    IT 

 










Légende :    VFR   VFR Marginal   IFR   IFR Intensif   IFR Très Intensif
Visi : 
Plafond : 
>= 8 km
>= 3000ft
5 à 8 km
1000 à 3000 ft
1500m à 5 km
500 à 1000 ft
800 à 1500m
200 à 500 ft
< 800m
< 200 ft
Symboles :   Orages  Brouillard  Fortes neiges  Fortes précipitations  Vent > 20 kt
SIGMETs :   Divers  Orages  Givrage  Turbulence  Onde Orograph.  Cendres Volcan.







- Altitude de l'aérodrome : 699 ft
- Code IATA : PAD


EDLP - Paderborn Lippstadt

DERNIER METAR :
  • 140950Z 24010KT 7000 -RA FEW008 SCT015 BKN024 17/16 Q1013

METARs EXPIRÉS :
  • 140920Z 25008KT 220V320 4500 -RA BR FEW005 SCT015 BKN024 16/16 Q1012
  • 140850Z 24010KT 4500 -RA BR FEW005 SCT015 BKN030 16/16 Q1012
  • 140820Z 24011KT 4000 -RA BR BKN010 17/15 Q1012
  • 140750Z 24013KT 6000 -RA FEW011 SCT015 BKN020 17/15 Q1012
  • 140720Z 23011KT 4500 -RA BR FEW013 BKN015 17/15 Q1011

TAF AMD TAF EDLP
Valide du 14 à 08h jusqu'au 15 à 06h UTC


140856Z 1408/1506 24010KT 4500 -RA BR SCT007 BKN014
BECMG 1408/1411 9999 SCT014 BKN030
TEMPO 1411/1416 28015G25KT
BECMG 1418/1421 24005KT
Pas de NOTAMs connus pour ce terrain.



MET'MAP, la Météo Aéronautique d'un coup d'oeil ! - Copyright ORBIFLY Décembre 2007 - Disclaimer

ORBIFLY MET'MAP TEAM :

Programmation & Développement : Alexandra Zaïnal
Conception & Développement : Baudouin d'Aumeries
Co-Programmation & Développement : Marc-Olivier Méhu
Soutien technique & logistique : Manuel Goepfert

Contact : metmap@orbifly.com




SOURCES & CREDITS :

   NOAA